Maribel — LAGU6 — position and weather

sailwx.info

Track history (hours):
 
Tides and Currents Weather Stations Pressure Air Temp Water Temp Dewpoint Dewpoint Depression Visibility Wind Speed Wind Dir Waves Ship Positions

Maribel

Last reported at 2014-Oct-20 01:14 UTC. Time now 2014-Nov-01 07:04 UTC.
Position N 36°07' E 014°55'.
Warning: this ship's position is 12 days out of date.

Length 228 m; draft 10.6 m.

Type: Ship. MMSI: 257872000.

Date/timePositionNaut miles runAvg speedWind from/ knotsBaromVisibWave heightAir tempDewpointWater temp
2014-Oct-20 01:14N 36°07' E 014°55'812.1
2014-Oct-20 00:32N 36°09' E 014°45'1212.2
2014-Oct-19 23:33N 36°13' E 014°31'1512.0
2014-Oct-19 22:19N 36°19' E 014°14'911.7
2014-Oct-19 21:30N 36°23' E 014°04'18911.8
2014-Oct-19 05:30N 37°32' E 010°23'1313.1
2014-Oct-19 04:32N 37°34' E 010°07'1313.1
2014-Oct-19 03:32N 37°34' E 009°51'1212.8
2014-Oct-19 02:33N 37°35' E 009°35'1312.8
2014-Oct-19 01:33N 37°36' E 009°19'1313.1
2014-Oct-19 00:33N 37°36' E 009°03'1212.3
2014-Oct-18 23:33N 37°36' E 008°47'1212.3
2014-Oct-18 22:33N 37°36' E 008°31'1311.8
2014-Oct-18 21:24N 37°35' E 008°14'1012.1
2014-Oct-18 20:32N 37°34' E 008°01'1312.4
2014-Oct-18 19:29N 37°33' E 007°45'1512.6
2014-Oct-18 18:20N 37°32' E 007°27'1112.5
2014-Oct-18 17:29N 37°31' E 007°13'1412.4
2014-Oct-18 16:22N 37°30' E 006°56'12612.4
2014-Oct-18 06:12N 37°22' E 004°17'812.8
2014-Oct-18 05:33N 37°21' E 004°06'1312.8
2014-Oct-18 04:33N 37°20' E 003°50'1312.7
2014-Oct-18 03:33N 37°19' E 003°35'1312.6
2014-Oct-18 02:33N 37°18' E 003°19'1312.5
2014-Oct-18 01:33N 37°17' E 003°03'1212.3
2014-Oct-18 00:33N 37°15' E 002°48'1312.4
2014-Oct-17 23:33N 37°12' E 002°33'2812.4
2014-Oct-17 21:15N 37°04' E 001°58'912.5
2014-Oct-17 20:33N 37°02' E 001°48'1313.0
2014-Oct-17 19:33N 36°58' E 001°32'1313.1
2014-Oct-17 18:33N 36°54' E 001°17'1313.1
2014-Oct-17 17:33N 36°51' E 001°01'1512.8
2014-Oct-17 16:25N 36°47' E 000°43'1112.3
2014-Oct-17 15:31N 36°44' E 000°30'1112.0
2014-Oct-17 14:33N 36°41' E 000°16'1212.2
2014-Oct-17 13:33N 36°37' E 000°01'1212.4
2014-Oct-17 12:33N 36°34' W 000°13'1312.4
2014-Oct-17 11:30N 36°30' W 000°29'1212.3
2014-Oct-17 10:30N 36°27' W 000°44'1212.1
2014-Oct-17 09:33N 36°23' W 000°57'21013.1
2014-Oct-16 17:33N 36°00' W 005°16'9 7.9
2014-Oct-16 16:26N 36°07' W 005°23'0 0.1
2014-Oct-16 15:32N 36°08' W 005°23'0 0.0
2014-Oct-16 14:32N 36°08' W 005°23'0 0.1
2014-Oct-16 13:32N 36°07' W 005°23'0 0.2
2014-Oct-16 12:31N 36°07' W 005°23'0 0.0
2014-Oct-16 11:25N 36°07' W 005°22'0 0.0
2014-Oct-16 10:33N 36°07' W 005°22'0 0.0
2014-Oct-16 09:30N 36°07' W 005°22'0 0.1
2014-Oct-16 08:29N 36°07' W 005°22'0 0.1
2014-Oct-16 07:20N 36°07' W 005°22'0 0.1
2014-Oct-16 06:19N 36°07' W 005°23'0 0.2
2014-Oct-16 05:10N 36°08' W 005°23'0 0.1
2014-Oct-16 04:28N 36°08' W 005°23'0 0.0
2014-Oct-16 03:33N 36°08' W 005°23'0 0.0
2014-Oct-16 02:30N 36°08' W 005°23'0 0.2
2014-Oct-16 01:32N 36°07' W 005°23'0 0.1
2014-Oct-16 00:08N 36°07' W 005°22'0 0.1
2014-Oct-15 23:32N 36°07' W 005°22'0 0.0
2014-Oct-15 22:31N 36°07' W 005°22'0 0.1
2014-Oct-15 21:31N 36°07' W 005°23'0 0.2
2014-Oct-15 20:33N 36°08' W 005°22'0 0.1
2014-Oct-15 19:33N 36°08' W 005°22'0 0.0
2014-Oct-15 18:32N 36°08' W 005°22'0 0.1
2014-Oct-15 17:32N 36°07' W 005°22'0 0.1
2014-Oct-15 16:28N 36°08' W 005°22'0 0.1
2014-Oct-15 15:22N 36°08' W 005°22'0 0.1
2014-Oct-15 14:31N 36°08' W 005°22'0 0.0
2014-Oct-15 13:33N 36°08' W 005°22'0 0.2
2014-Oct-15 12:33N 36°07' W 005°22'0 0.1
2014-Oct-15 11:32N 36°07' W 005°22'0 0.0
2014-Oct-15 10:20N 36°07' W 005°22'0 0.0
2014-Oct-15 07:06N 36°07' W 005°22'0 0.2
2014-Oct-15 06:30N 36°07' W 005°22'0 0.1
2014-Oct-15 05:30N 36°08' W 005°22'0 0.1
2014-Oct-15 04:34N 36°08' W 005°22'5 5.4
2014-Oct-15 03:33N 36°02' W 005°20'1110.3
2014-Oct-15 02:32N 35°57' W 005°31'236 9.8
2014-Oct-14 02:31N 37°43' W 009°54'  
2014-Oct-10 10:31N 50°34' E 000°15'8 8.1
2014-Oct-10 09:33N 50°36' E 000°27'8 8.5
2014-Oct-10 08:33N 50°39' E 000°39'1110.6
2014-Oct-10 07:33N 50°45' E 000°53'1712.1
2014-Oct-10 06:10N 50°56' E 001°13'712.2
2014-Oct-10 05:33N 51°01' E 001°21'1111.0
2014-Oct-10 04:33N 51°08' E 001°35'9 9.0
2014-Oct-10 03:33N 51°14' E 001°46'8 8.2
2014-Oct-10 02:33N 51°21' E 001°51'8 7.7
2014-Oct-10 01:33N 51°28' E 001°57'  
Track history (hours):
 
Tides and Currents Weather Stations Pressure Air Temp Water Temp Dewpoint Dewpoint Depression Visibility Wind Speed Wind Dir Waves Ship Positions

Maribel

Last reported at 2014-Oct-20 01:14 UTC. Time now 2014-Nov-01 07:04 UTC.
Position N 36°07' E 014°55'.
Warning: this ship's position is 12 days out of date.

Length 228 m; draft 10.6 m.

Type: Ship. MMSI: 257872000.

Date/timePositionNaut miles runAvg speedWind from/ knotsBaromVisibWave heightAir tempDewpointWater temp
2014-Oct-20 01:14N 36°07' E 014°55'812.1
2014-Oct-20 00:32N 36°09' E 014°45'1212.2
2014-Oct-19 23:33N 36°13' E 014°31'1512.0
2014-Oct-19 22:19N 36°19' E 014°14'911.7
2014-Oct-19 21:30N 36°23' E 014°04'18911.8
2014-Oct-19 05:30N 37°32' E 010°23'1313.1
2014-Oct-19 04:32N 37°34' E 010°07'1313.1
2014-Oct-19 03:32N 37°34' E 009°51'1212.8
2014-Oct-19 02:33N 37°35' E 009°35'1312.8
2014-Oct-19 01:33N 37°36' E 009°19'1313.1
2014-Oct-19 00:33N 37°36' E 009°03'1212.3
2014-Oct-18 23:33N 37°36' E 008°47'1212.3
2014-Oct-18 22:33N 37°36' E 008°31'1311.8
2014-Oct-18 21:24N 37°35' E 008°14'1012.1
2014-Oct-18 20:32N 37°34' E 008°01'1312.4
2014-Oct-18 19:29N 37°33' E 007°45'1512.6
2014-Oct-18 18:20N 37°32' E 007°27'1112.5
2014-Oct-18 17:29N 37°31' E 007°13'1412.4
2014-Oct-18 16:22N 37°30' E 006°56'12612.4
2014-Oct-18 06:12N 37°22' E 004°17'812.8
2014-Oct-18 05:33N 37°21' E 004°06'1312.8
2014-Oct-18 04:33N 37°20' E 003°50'1312.7
2014-Oct-18 03:33N 37°19' E 003°35'1312.6
2014-Oct-18 02:33N 37°18' E 003°19'1312.5
2014-Oct-18 01:33N 37°17' E 003°03'1212.3
2014-Oct-18 00:33N 37°15' E 002°48'1312.4
2014-Oct-17 23:33N 37°12' E 002°33'2812.4
2014-Oct-17 21:15N 37°04' E 001°58'912.5
2014-Oct-17 20:33N 37°02' E 001°48'1313.0
2014-Oct-17 19:33N 36°58' E 001°32'1313.1
2014-Oct-17 18:33N 36°54' E 001°17'1313.1
2014-Oct-17 17:33N 36°51' E 001°01'1512.8
2014-Oct-17 16:25N 36°47' E 000°43'1112.3
2014-Oct-17 15:31N 36°44' E 000°30'1112.0
2014-Oct-17 14:33N 36°41' E 000°16'1212.2
2014-Oct-17 13:33N 36°37' E 000°01'1212.4
2014-Oct-17 12:33N 36°34' W 000°13'1312.4
2014-Oct-17 11:30N 36°30' W 000°29'1212.3
2014-Oct-17 10:30N 36°27' W 000°44'1212.1
2014-Oct-17 09:33N 36°23' W 000°57'21013.1
2014-Oct-16 17:33N 36°00' W 005°16'9 7.9
2014-Oct-16 16:26N 36°07' W 005°23'0 0.1
2014-Oct-16 15:32N 36°08' W 005°23'0 0.0
2014-Oct-16 14:32N 36°08' W 005°23'0 0.1
2014-Oct-16 13:32N 36°07' W 005°23'0 0.2
2014-Oct-16 12:31N 36°07' W 005°23'0 0.0
2014-Oct-16 11:25N 36°07' W 005°22'0 0.0
2014-Oct-16 10:33N 36°07' W 005°22'0 0.0
2014-Oct-16 09:30N 36°07' W 005°22'0 0.1
2014-Oct-16 08:29N 36°07' W 005°22'0 0.1
2014-Oct-16 07:20N 36°07' W 005°22'0 0.1
2014-Oct-16 06:19N 36°07' W 005°23'0 0.2
2014-Oct-16 05:10N 36°08' W 005°23'0 0.1
2014-Oct-16 04:28N 36°08' W 005°23'0 0.0
2014-Oct-16 03:33N 36°08' W 005°23'0 0.0
2014-Oct-16 02:30N 36°08' W 005°23'0 0.2
2014-Oct-16 01:32N 36°07' W 005°23'0 0.1
2014-Oct-16 00:08N 36°07' W 005°22'0 0.1
2014-Oct-15 23:32N 36°07' W 005°22'0 0.0
2014-Oct-15 22:31N 36°07' W 005°22'0 0.1
2014-Oct-15 21:31N 36°07' W 005°23'0 0.2
2014-Oct-15 20:33N 36°08' W 005°22'0 0.1
2014-Oct-15 19:33N 36°08' W 005°22'0 0.0
2014-Oct-15 18:32N 36°08' W 005°22'0 0.1
2014-Oct-15 17:32N 36°07' W 005°22'0 0.1
2014-Oct-15 16:28N 36°08' W 005°22'0 0.1
2014-Oct-15 15:22N 36°08' W 005°22'0 0.1
2014-Oct-15 14:31N 36°08' W 005°22'0 0.0
2014-Oct-15 13:33N 36°08' W 005°22'0 0.2
2014-Oct-15 12:33N 36°07' W 005°22'0 0.1
2014-Oct-15 11:32N 36°07' W 005°22'0 0.0
2014-Oct-15 10:20N 36°07' W 005°22'0 0.0
2014-Oct-15 07:06N 36°07' W 005°22'0 0.2
2014-Oct-15 06:30N 36°07' W 005°22'0 0.1
2014-Oct-15 05:30N 36°08' W 005°22'0 0.1
2014-Oct-15 04:34N 36°08' W 005°22'5 5.4
2014-Oct-15 03:33N 36°02' W 005°20'1110.3
2014-Oct-15 02:32N 35°57' W 005°31'236 9.8
2014-Oct-14 02:31N 37°43' W 009°54'  
2014-Oct-10 10:31N 50°34' E 000°15'8 8.1
2014-Oct-10 09:33N 50°36' E 000°27'8 8.5
2014-Oct-10 08:33N 50°39' E 000°39'1110.6
2014-Oct-10 07:33N 50°45' E 000°53'1712.1
2014-Oct-10 06:10N 50°56' E 001°13'712.2
2014-Oct-10 05:33N 51°01' E 001°21'1111.0
2014-Oct-10 04:33N 51°08' E 001°35'9 9.0
2014-Oct-10 03:33N 51°14' E 001°46'8 8.2
2014-Oct-10 02:33N 51°21' E 001°51'8 7.7
2014-Oct-10 01:33N 51°28' E 001°57'  

Dump ship's entire track history